Time;durP1;ratioP1;P1;durP2;ratioP2;P2;SDS_P1;SDS_P2;PMS_P1;PMS_P2;Temp;Humidity;BMP_temperature;BMP_pressure;BME280_temperature;BME280_humidity;BME280_pressure;Samples;Min_cycle;Max_cycle;Signal;HPM_P1;HPM_P2
2022/03/30 00:01:54;;;;;;;27.47;6.13;;;;;;;;;;4984616;28;20292;-77
2022/03/30 00:04:21;;;;;;;23.67;6.63;;;;;;;;;;4975945;28;20715;-79
2022/03/30 00:06:48;;;;;;;22.03;5.73;;;;;;;;;;4961787;28;20216;-76
2022/03/30 00:09:16;;;;;;;23.60;6.70;;;;;;;;;;4970463;28;20246;-78
2022/03/30 00:11:43;;;;;;;20.83;6.87;;;;;;;;;;4970242;28;20208;-78
2022/03/30 00:14:10;;;;;;;20.43;6.83;;;;;;;;;;4965821;28;20741;-79
2022/03/30 00:16:38;;;;;;;26.53;6.50;;;;;;;;;;4964252;28;20275;-79
2022/03/30 00:19:06;;;;;;;23.13;5.97;;;;;;;;;;4964109;28;20229;-78
2022/03/30 00:21:33;;;;;;;21.53;7.00;;;;;;;;;;4972232;28;20275;-78
2022/03/30 00:24:00;;;;;;;25.50;6.97;;;;;;;;;;4964973;28;20303;-79
2022/03/30 00:26:27;;;;;;;27.30;6.57;;;;;;;;;;4968116;28;20299;-78
2022/03/30 00:28:54;;;;;;;24.83;6.10;;;;;;;;;;4967955;28;20306;-78
2022/03/30 00:31:22;;;;;;;21.70;6.07;;;;;;;;;;4958034;28;20608;-77
2022/03/30 00:33:51;;;;;;;25.10;6.50;;;;;;;;;;4971526;28;20704;-77
2022/03/30 00:36:19;;;;;;;21.63;6.27;;;;;;;;;;4964045;28;21757;-79
2022/03/30 00:38:46;;;;;;;21.97;5.87;;;;;;;;;;4967450;28;20234;-77
2022/03/30 00:41:14;;;;;;;30.83;7.57;;;;;;;;;;4970302;28;20342;-78
2022/03/30 00:43:41;;;;;;;24.13;6.40;;;;;;;;;;4961640;28;20234;-77
2022/03/30 00:46:12;;;;;;;34.00;7.33;;;;;;;;;;4954949;28;20667;-79
2022/03/30 00:48:40;;;;;;;22.00;5.87;;;;;;;;;;4967994;28;20323;-79
2022/03/30 00:51:07;;;;;;;26.10;6.73;;;;;;;;;;4978042;28;20242;-80
2022/03/30 00:53:34;;;;;;;25.53;6.67;;;;;;;;;;4972388;28;20243;-78
2022/03/30 00:56:02;;;;;;;25.27;6.80;;;;;;;;;;4961752;28;20295;-79
2022/03/30 00:58:29;;;;;;;16.00;6.07;;;;;;;;;;4956606;28;20732;-76
2022/03/30 01:00:58;;;;;;;26.47;6.50;;;;;;;;;;4963707;28;20197;-78
2022/03/30 01:03:26;;;;;;;23.73;6.60;;;;;;;;;;4972612;28;20594;-78
2022/03/30 01:05:53;;;;;;;23.60;5.87;;;;;;;;;;4965677;28;20216;-76
2022/03/30 01:08:21;;;;;;;27.97;7.03;;;;;;;;;;4970637;28;20231;-76
2022/03/30 01:10:49;;;;;;;21.13;6.90;;;;;;;;;;4982538;28;20225;-80
2022/03/30 01:13:16;;;;;;;26.23;6.33;;;;;;;;;;4976116;28;20237;-76
2022/03/30 01:15:46;;;;;;;23.07;6.47;;;;;;;;;;4966175;28;20638;-79
2022/03/30 01:18:13;;;;;;;30.07;6.57;;;;;;;;;;4972941;28;20335;-77
2022/03/30 01:20:41;;;;;;;27.53;7.00;;;;;;;;;;4972059;28;20680;-76
2022/03/30 01:23:08;;;;;;;26.13;6.83;;;;;;;;;;4981585;28;20751;-78
2022/03/30 01:25:36;;;;;;;29.03;6.80;;;;;;;;;;4976568;28;20208;-76
2022/03/30 01:28:04;;;;;;;25.73;6.43;;;;;;;;;;4974591;28;20314;-78
2022/03/30 01:33:17;;;;;;;21.87;6.13;;;;;;;;;;4970350;28;20281;-78
2022/03/30 01:35:44;;;;;;;21.30;6.40;;;;;;;;;;4968103;28;21890;-79
2022/03/30 01:38:11;;;;;;;24.47;6.17;;;;;;;;;;4979752;28;20283;-77
2022/03/30 01:40:39;;;;;;;23.17;6.20;;;;;;;;;;4957449;28;20291;-77
2022/03/30 01:43:07;;;;;;;30.17;6.60;;;;;;;;;;4959003;28;20782;-81
2022/03/30 01:45:34;;;;;;;24.80;6.90;;;;;;;;;;4966835;28;20295;-78
2022/03/30 01:48:02;;;;;;;21.23;6.33;;;;;;;;;;4962030;28;20702;-79
2022/03/30 01:50:33;;;;;;;26.93;6.13;;;;;;;;;;4972301;28;20276;-77
2022/03/30 01:53:01;;;;;;;27.53;6.47;;;;;;;;;;4958048;28;20319;-78
2022/03/30 01:55:29;;;;;;;20.20;5.97;;;;;;;;;;4961547;28;20529;-77
2022/03/30 01:57:56;;;;;;;25.87;6.90;;;;;;;;;;4964854;28;20294;-78
2022/03/30 02:00:26;;;;;;;26.93;6.40;;;;;;;;;;4966335;28;20311;-78
2022/03/30 02:02:53;;;;;;;16.33;5.23;;;;;;;;;;4970212;28;20255;-78
2022/03/30 02:05:21;;;;;;;21.73;5.43;;;;;;;;;;4954754;28;20583;-78
2022/03/30 02:07:48;;;;;;;27.70;5.80;;;;;;;;;;4967050;28;20290;-75
2022/03/30 02:10:16;;;;;;;29.80;6.40;;;;;;;;;;4959270;28;20211;-77
2022/03/30 02:12:44;;;;;;;28.63;6.27;;;;;;;;;;4958356;28;21217;-77
2022/03/30 02:15:11;;;;;;;18.13;5.90;;;;;;;;;;4964698;28;20236;-77
2022/03/30 02:17:39;;;;;;;18.33;5.97;;;;;;;;;;4966700;28;20743;-80
2022/03/30 02:20:08;;;;;;;21.43;5.80;;;;;;;;;;4963674;28;20235;-77
2022/03/30 02:22:35;;;;;;;23.93;6.60;;;;;;;;;;4970564;28;20204;-78
2022/03/30 02:25:03;;;;;;;21.93;6.17;;;;;;;;;;4972851;28;20220;-79
2022/03/30 02:27:30;;;;;;;22.10;5.87;;;;;;;;;;4970835;28;20208;-78
2022/03/30 02:29:57;;;;;;;24.03;6.07;;;;;;;;;;4974854;28;20300;-77
2022/03/30 02:32:25;;;;;;;22.10;6.03;;;;;;;;;;4971952;28;20403;-78
2022/03/30 02:34:52;;;;;;;19.70;5.67;;;;;;;;;;4966926;28;20236;-79
2022/03/30 02:37:19;;;;;;;19.93;7.13;;;;;;;;;;4963906;28;20242;-77
2022/03/30 02:39:46;;;;;;;24.53;6.60;;;;;;;;;;4977522;28;20213;-79
2022/03/30 02:42:14;;;;;;;26.53;6.60;;;;;;;;;;4968233;28;20204;-79
2022/03/30 02:44:41;;;;;;;23.63;6.40;;;;;;;;;;4957520;28;20341;-76
2022/03/30 02:47:09;;;;;;;23.50;6.00;;;;;;;;;;4968019;28;20283;-76
2022/03/30 02:49:38;;;;;;;19.57;5.37;;;;;;;;;;4960646;28;20293;-78
2022/03/30 02:52:06;;;;;;;22.10;6.00;;;;;;;;;;4959495;28;22521;-80
2022/03/30 02:54:33;;;;;;;28.30;6.23;;;;;;;;;;4966888;28;20232;-77
2022/03/30 02:57:01;;;;;;;20.73;5.63;;;;;;;;;;4975147;28;20672;-78
2022/03/30 02:59:28;;;;;;;20.23;5.57;;;;;;;;;;4957412;28;20213;-77
2022/03/30 03:01:58;;;;;;;24.50;6.50;;;;;;;;;;4967959;28;20209;-76
2022/03/30 03:04:25;;;;;;;22.50;5.83;;;;;;;;;;4960767;28;20503;-78
2022/03/30 03:06:52;;;;;;;21.97;5.90;;;;;;;;;;4970376;28;20296;-79
2022/03/30 03:09:19;;;;;;;20.57;6.20;;;;;;;;;;4971220;28;20912;-78
2022/03/30 03:11:47;;;;;;;16.97;5.80;;;;;;;;;;4960882;28;20204;-76
2022/03/30 03:14:14;;;;;;;22.23;5.83;;;;;;;;;;4960777;28;20239;-79
2022/03/30 03:16:41;;;;;;;21.17;6.20;;;;;;;;;;4969996;28;20708;-76
2022/03/30 03:19:10;;;;;;;22.13;6.20;;;;;;;;;;4965133;28;20204;-79
2022/03/30 03:21:37;;;;;;;26.13;7.33;;;;;;;;;;4971408;28;20207;-78
2022/03/30 03:24:05;;;;;;;19.00;6.43;;;;;;;;;;4979699;28;20236;-78
2022/03/30 03:26:32;;;;;;;19.67;6.50;;;;;;;;;;4983566;28;20286;-78
2022/03/30 03:29:00;;;;;;;25.57;7.40;;;;;;;;;;4982432;28;20240;-76
2022/03/30 03:31:28;;;;;;;16.50;6.43;;;;;;;;;;4982090;28;20299;-77
2022/03/30 03:33:55;;;;;;;20.47;6.57;;;;;;;;;;4974567;28;20359;-78
2022/03/30 03:36:23;;;;;;;23.53;7.27;;;;;;;;;;4975357;28;20276;-80
2022/03/30 03:38:51;;;;;;;22.90;7.53;;;;;;;;;;4969600;28;20238;-79
2022/03/30 03:41:19;;;;;;;22.50;6.77;;;;;;;;;;4961393;28;20292;-78
2022/03/30 03:43:47;;;;;;;22.50;6.67;;;;;;;;;;4965020;28;20224;-76
2022/03/30 03:46:14;;;;;;;21.57;6.00;;;;;;;;;;4961257;28;20362;-78
2022/03/30 03:48:44;;;;;;;20.17;6.40;;;;;;;;;;4974727;28;20711;-79
2022/03/30 03:51:12;;;;;;;19.80;6.67;;;;;;;;;;4968685;28;20304;-79
2022/03/30 03:53:39;;;;;;;17.53;6.10;;;;;;;;;;4973234;28;20306;-78
2022/03/30 03:56:06;;;;;;;21.33;6.67;;;;;;;;;;4961351;28;20224;-78
2022/03/30 03:58:34;;;;;;;25.87;7.33;;;;;;;;;;4955816;28;20200;-78
2022/03/30 04:01:01;;;;;;;22.50;6.03;;;;;;;;;;4967816;28;20323;-78
2022/03/30 04:03:29;;;;;;;26.63;6.83;;;;;;;;;;4969583;28;20302;-77
2022/03/30 04:05:57;;;;;;;19.50;6.40;;;;;;;;;;4965509;28;20218;-79
2022/03/30 04:08:24;;;;;;;18.47;6.43;;;;;;;;;;4961186;28;20208;-77
2022/03/30 04:10:51;;;;;;;20.00;6.57;;;;;;;;;;4967529;28;20244;-77
2022/03/30 04:13:18;;;;;;;18.93;6.50;;;;;;;;;;4973787;28;20620;-79
2022/03/30 04:15:46;;;;;;;27.90;7.27;;;;;;;;;;4969456;28;20252;-80
2022/03/30 04:18:17;;;;;;;25.27;7.97;;;;;;;;;;4971474;28;20204;-78
2022/03/30 04:20:44;;;;;;;19.47;6.17;;;;;;;;;;4975079;28;20208;-78
2022/03/30 04:23:11;;;;;;;22.50;6.63;;;;;;;;;;4973787;28;20314;-78
2022/03/30 04:25:39;;;;;;;18.00;6.47;;;;;;;;;;4967767;28;20314;-78
2022/03/30 04:28:06;;;;;;;15.90;6.07;;;;;;;;;;4967497;28;21064;-77
2022/03/30 04:30:34;;;;;;;16.10;7.83;;;;;;;;;;4966532;28;20295;-79
2022/03/30 04:33:01;;;;;;;19.20;6.53;;;;;;;;;;4964524;28;20791;-78
2022/03/30 04:35:29;;;;;;;20.93;6.87;;;;;;;;;;4965962;28;20220;-76
2022/03/30 04:37:56;;;;;;;18.67;6.83;;;;;;;;;;4972962;28;20769;-78
2022/03/30 04:40:25;;;;;;;21.17;7.50;;;;;;;;;;4974567;28;20326;-79
2022/03/30 04:42:52;;;;;;;20.53;6.97;;;;;;;;;;4969489;28;20292;-78
2022/03/30 04:45:19;;;;;;;21.87;6.60;;;;;;;;;;4974805;28;21709;-78
2022/03/30 04:47:47;;;;;;;20.60;6.40;;;;;;;;;;4975710;28;20292;-78
2022/03/30 04:50:14;;;;;;;17.77;6.53;;;;;;;;;;4982016;28;20230;-76
2022/03/30 04:52:42;;;;;;;15.00;6.60;;;;;;;;;;4980374;28;20312;-77
2022/03/30 04:55:11;;;;;;;21.10;7.63;;;;;;;;;;4975454;28;20323;-77
2022/03/30 04:57:38;;;;;;;17.10;6.20;;;;;;;;;;4978293;28;20200;-77
2022/03/30 05:00:08;;;;;;;22.27;6.50;;;;;;;;;;4983812;28;20224;-79
2022/03/30 05:02:37;;;;;;;19.53;6.87;;;;;;;;;;4978604;28;20291;-79
2022/03/30 05:05:05;;;;;;;20.17;7.10;;;;;;;;;;4988619;28;20614;-81
2022/03/30 05:07:32;;;;;;;17.00;6.90;;;;;;;;;;4984136;28;20213;-80
2022/03/30 05:10:00;;;;;;;17.43;7.30;;;;;;;;;;4988531;28;20236;-81
2022/03/30 05:12:27;;;;;;;22.67;7.10;;;;;;;;;;4990542;28;20219;-84
2022/03/30 05:14:54;;;;;;;19.23;7.83;;;;;;;;;;4991765;28;20688;-81
2022/03/30 05:17:22;;;;;;;23.47;8.10;;;;;;;;;;4992120;28;20283;-81
2022/03/30 05:19:49;;;;;;;23.23;8.40;;;;;;;;;;4991297;28;20228;-83
2022/03/30 05:22:16;;;;;;;23.67;7.17;;;;;;;;;;4982974;28;20618;-82
2022/03/30 05:24:44;;;;;;;19.77;7.73;;;;;;;;;;4982477;28;20227;-83
2022/03/30 05:27:11;;;;;;;22.30;7.37;;;;;;;;;;4988443;28;20240;-82
2022/03/30 05:29:39;;;;;;;21.43;7.37;;;;;;;;;;4988980;28;20232;-78
2022/03/30 05:32:06;;;;;;;22.90;7.63;;;;;;;;;;4985583;28;20274;-83
2022/03/30 05:34:40;;;;;;;22.83;7.73;;;;;;;;;;4993108;28;20733;-85
2022/03/30 05:37:07;;;;;;;22.10;7.23;;;;;;;;;;4985261;28;20231;-82
2022/03/30 05:39:41;;;;;;;23.10;8.80;;;;;;;;;;4986060;28;20238;-81
2022/03/30 05:42:10;;;;;;;21.73;8.67;;;;;;;;;;4988276;28;20216;-82
2022/03/30 05:44:38;;;;;;;25.87;8.03;;;;;;;;;;4988541;28;20287;-81
2022/03/30 05:47:07;;;;;;;19.90;7.63;;;;;;;;;;4989118;28;20205;-80
2022/03/30 05:49:35;;;;;;;20.73;7.50;;;;;;;;;;4985653;28;20208;-79
2022/03/30 05:52:03;;;;;;;20.23;7.40;;;;;;;;;;4984268;28;20232;-81
2022/03/30 05:54:33;;;;;;;20.63;7.93;;;;;;;;;;4986383;28;20224;-83
2022/03/30 05:57:02;;;;;;;18.60;7.30;;;;;;;;;;4982424;28;20419;-81
2022/03/30 05:59:34;;;;;;;20.27;7.93;;;;;;;;;;4986886;28;20215;-79
2022/03/30 06:02:03;;;;;;;20.57;7.80;;;;;;;;;;4971739;28;21025;-77
2022/03/30 06:04:31;;;;;;;22.30;8.03;;;;;;;;;;4980203;28;20235;-80
2022/03/30 06:06:58;;;;;;;26.23;7.90;;;;;;;;;;4978097;28;20239;-79
2022/03/30 06:09:27;;;;;;;25.60;7.70;;;;;;;;;;4974969;28;20298;-79
2022/03/30 06:12:08;;;;;;;25.93;7.93;;;;;;;;;;4976499;28;20766;-81
2022/03/30 06:14:35;;;;;;;24.10;8.00;;;;;;;;;;4979501;28;20227;-80
2022/03/30 06:17:03;;;;;;;21.23;7.77;;;;;;;;;;4981613;28;20259;-79
2022/03/30 06:19:32;;;;;;;26.37;7.87;;;;;;;;;;4983060;28;20201;-81
2022/03/30 06:21:59;;;;;;;21.37;7.73;;;;;;;;;;4981523;28;20251;-78
2022/03/30 06:24:27;;;;;;;19.10;7.70;;;;;;;;;;4983517;28;20318;-79
2022/03/30 06:26:54;;;;;;;26.07;8.13;;;;;;;;;;4983098;28;20232;-80
2022/03/30 06:29:21;;;;;;;21.67;9.07;;;;;;;;;;4982046;28;20233;-76
2022/03/30 06:31:48;;;;;;;17.40;8.30;;;;;;;;;;4978686;28;20721;-78
2022/03/30 06:34:16;;;;;;;24.80;8.37;;;;;;;;;;4981298;28;20232;-79
2022/03/30 06:36:44;;;;;;;19.07;8.30;;;;;;;;;;4977285;28;20315;-80
2022/03/30 06:39:11;;;;;;;20.20;8.83;;;;;;;;;;4984294;28;20208;-79
2022/03/30 06:41:39;;;;;;;22.93;8.57;;;;;;;;;;4981575;28;20237;-80
2022/03/30 06:44:06;;;;;;;19.77;8.07;;;;;;;;;;4985426;28;20224;-79
2022/03/30 06:46:38;;;;;;;26.67;8.23;;;;;;;;;;4983820;28;20677;-80
2022/03/30 06:49:07;;;;;;;24.20;7.97;;;;;;;;;;4977404;28;20220;-81
2022/03/30 06:51:34;;;;;;;27.60;7.33;;;;;;;;;;4983037;28;20208;-78
2022/03/30 06:54:01;;;;;;;24.40;6.60;;;;;;;;;;4981488;28;20313;-78
2022/03/30 06:56:29;;;;;;;28.33;7.40;;;;;;;;;;4983791;28;20262;-81
2022/03/30 06:58:56;;;;;;;23.27;8.67;;;;;;;;;;4977619;28;20271;-80
2022/03/30 07:01:23;;;;;;;32.33;8.20;;;;;;;;;;4988757;28;20238;-81
2022/03/30 07:03:51;;;;;;;28.53;8.70;;;;;;;;;;4981100;28;20298;-81
2022/03/30 07:06:21;;;;;;;25.27;7.77;;;;;;;;;;4984321;28;20214;-80
2022/03/30 07:11:54;;;;;;;19.00;7.83;;;;;;;;;;4947278;28;20667;-81
2022/03/30 07:14:24;;;;;;;20.00;7.17;;;;;;;;;;4977453;28;21211;-83
2022/03/30 07:16:51;;;;;;;23.13;8.00;;;;;;;;;;4988272;28;20292;-81
2022/03/30 07:19:19;;;;;;;23.87;7.57;;;;;;;;;;4993971;28;20196;-83
2022/03/30 07:21:46;;;;;;;19.33;7.17;;;;;;;;;;4989574;28;20233;-80
2022/03/30 07:24:13;;;;;;;24.03;7.63;;;;;;;;;;4987639;28;20220;-82
2022/03/30 07:26:40;;;;;;;22.57;7.87;;;;;;;;;;4995639;28;20318;-79
2022/03/30 07:29:07;;;;;;;19.70;7.67;;;;;;;;;;4984386;28;20205;-83
2022/03/30 07:31:35;;;;;;;19.80;7.27;;;;;;;;;;4987658;28;20555;-81
2022/03/30 07:34:02;;;;;;;23.33;7.90;;;;;;;;;;4986185;28;20531;-78
2022/03/30 07:36:29;;;;;;;20.47;7.90;;;;;;;;;;4980845;28;20233;-82
2022/03/30 07:38:57;;;;;;;23.30;7.63;;;;;;;;;;4989593;28;20295;-83
2022/03/30 07:41:24;;;;;;;19.67;8.03;;;;;;;;;;4985980;28;20324;-81
2022/03/30 07:43:52;;;;;;;22.50;8.33;;;;;;;;;;4987231;28;20220;-81
2022/03/30 07:46:19;;;;;;;23.70;7.93;;;;;;;;;;4985042;28;20680;-80
2022/03/30 07:48:47;;;;;;;23.10;8.17;;;;;;;;;;4982624;28;20220;-79
2022/03/30 07:51:14;;;;;;;26.93;8.40;;;;;;;;;;4980978;28;20232;-81
2022/03/30 07:53:41;;;;;;;18.33;6.97;;;;;;;;;;4984312;28;20239;-80
2022/03/30 07:56:09;;;;;;;24.33;8.13;;;;;;;;;;4978939;28;20303;-82
2022/03/30 07:58:36;;;;;;;22.23;7.80;;;;;;;;;;4981481;28;20218;-81
2022/03/30 08:01:03;;;;;;;21.23;7.40;;;;;;;;;;4987051;28;20237;-80
2022/03/30 08:03:31;;;;;;;28.83;7.93;;;;;;;;;;4980924;28;20599;-79
2022/03/30 08:06:00;;;;;;;24.17;8.63;;;;;;;;;;4975214;28;20218;-80
2022/03/30 08:08:27;;;;;;;21.00;8.13;;;;;;;;;;4986427;28;20300;-82
2022/03/30 08:10:55;;;;;;;21.03;7.47;;;;;;;;;;4987137;28;20247;-79
2022/03/30 08:13:22;;;;;;;24.77;8.00;;;;;;;;;;4975760;28;20790;-79
2022/03/30 08:15:49;;;;;;;28.73;8.23;;;;;;;;;;4983732;28;20491;-82
2022/03/30 08:18:17;;;;;;;22.97;7.27;;;;;;;;;;4985269;28;20747;-80
2022/03/30 08:23:30;;;;;;;26.27;7.87;;;;;;;;;;4988366;28;20315;-81
2022/03/30 08:25:57;;;;;;;20.70;7.73;;;;;;;;;;4983701;28;20290;-82
2022/03/30 08:28:27;;;;;;;22.80;8.23;;;;;;;;;;4990291;28;20269;-81
2022/03/30 08:30:54;;;;;;;30.07;9.23;;;;;;;;;;4989782;28;20239;-82
2022/03/30 08:33:26;;;;;;;26.90;8.77;;;;;;;;;;4982879;28;20233;-80
2022/03/30 08:35:54;;;;;;;23.57;9.30;;;;;;;;;;4974147;28;20260;-77
2022/03/30 08:38:21;;;;;;;23.33;8.63;;;;;;;;;;4977029;28;20235;-80
2022/03/30 08:40:51;;;;;;;31.33;8.93;;;;;;;;;;4985668;28;20238;-80
2022/03/30 08:43:18;;;;;;;19.03;8.27;;;;;;;;;;4991877;28;20224;-82
2022/03/30 08:45:46;;;;;;;26.37;8.50;;;;;;;;;;4986004;28;20291;-82
2022/03/30 08:48:13;;;;;;;26.00;8.50;;;;;;;;;;4970769;28;20667;-80
2022/03/30 08:50:40;;;;;;;26.97;8.47;;;;;;;;;;4984443;28;20298;-81
2022/03/30 08:53:07;;;;;;;20.23;7.70;;;;;;;;;;4977413;28;20255;-81
2022/03/30 08:55:35;;;;;;;19.30;8.10;;;;;;;;;;4986872;28;20310;-83
2022/03/30 08:58:03;;;;;;;22.70;7.87;;;;;;;;;;4985492;28;20208;-79
2022/03/30 09:00:34;;;;;;;19.90;7.40;;;;;;;;;;4971435;28;20696;-81
2022/03/30 09:03:03;;;;;;;21.20;7.67;;;;;;;;;;4982575;28;20726;-79
2022/03/30 09:05:33;;;;;;;22.23;8.43;;;;;;;;;;4984664;28;20204;-76
2022/03/30 09:08:25;;;;;;;23.10;7.87;;;;;;;;;;4976566;28;20212;-81
2022/03/30 09:10:53;;;;;;;19.97;7.27;;;;;;;;;;4983993;28;20295;-79
2022/03/30 09:13:21;;;;;;;17.40;7.40;;;;;;;;;;4983286;28;20307;-79
2022/03/30 09:15:49;;;;;;;18.33;7.70;;;;;;;;;;4971643;28;20780;-79
2022/03/30 09:18:19;;;;;;;24.87;7.73;;;;;;;;;;4968919;28;20290;-78
2022/03/30 09:20:48;;;;;;;27.57;8.20;;;;;;;;;;4977120;28;20244;-78
2022/03/30 09:23:21;;;;;;;20.10;7.67;;;;;;;;;;4970502;28;20712;-79
2022/03/30 09:25:50;;;;;;;19.13;7.50;;;;;;;;;;4970772;28;20683;-80
2022/03/30 09:28:19;;;;;;;23.67;7.70;;;;;;;;;;4990130;28;20722;-82
2022/03/30 09:30:47;;;;;;;24.53;8.27;;;;;;;;;;4981783;28;20208;-79
2022/03/30 09:33:19;;;;;;;18.53;7.10;;;;;;;;;;4980248;28;20273;-78
2022/03/30 09:35:46;;;;;;;20.03;7.43;;;;;;;;;;4981066;28;20865;-81
2022/03/30 09:38:16;;;;;;;19.67;7.43;;;;;;;;;;4994861;28;20206;-80
2022/03/30 09:40:55;;;;;;;17.90;7.83;;;;;;;;;;4975241;28;20287;-80
2022/03/30 09:43:27;;;;;;;20.80;7.10;;;;;;;;;;4972350;28;20641;-81
2022/03/30 09:46:11;;;;;;;23.90;8.00;;;;;;;;;;4980246;28;20208;-81
2022/03/30 09:48:43;;;;;;;18.37;7.70;;;;;;;;;;4980245;28;20235;-82
2022/03/30 09:51:11;;;;;;;17.90;7.43;;;;;;;;;;4977797;28;20219;-81
2022/03/30 09:53:38;;;;;;;23.03;7.53;;;;;;;;;;4982990;28;20765;-80
2022/03/30 09:56:16;;;;;;;17.67;6.33;;;;;;;;;;4973284;28;20246;-81
2022/03/30 09:58:44;;;;;;;17.20;7.23;;;;;;;;;;4973179;28;20274;-80
2022/03/30 10:01:17;;;;;;;19.07;7.40;;;;;;;;;;4972976;28;20208;-80
2022/03/30 10:03:52;;;;;;;16.47;5.90;;;;;;;;;;4976224;28;20227;-80
2022/03/30 10:06:26;;;;;;;15.37;5.90;;;;;;;;;;4972069;28;20221;-82
2022/03/30 10:08:54;;;;;;;16.77;6.50;;;;;;;;;;4982007;28;20211;-79
2022/03/30 10:11:22;;;;;;;17.00;6.60;;;;;;;;;;4984908;28;20220;-82
2022/03/30 10:13:53;;;;;;;13.53;5.57;;;;;;;;;;4975467;28;20680;-81
2022/03/30 10:16:39;;;;;;;19.77;6.17;;;;;;;;;;4971431;28;20315;-80
2022/03/30 10:19:08;;;;;;;9.60;4.90;;;;;;;;;;4977670;28;20606;-81
2022/03/30 10:22:14;;;;;;;11.37;5.50;;;;;;;;;;4974397;28;20208;-79
2022/03/30 10:25:17;;;;;;;12.50;5.10;;;;;;;;;;4932723;28;20217;-81
2022/03/30 10:27:55;;;;;;;14.97;5.17;;;;;;;;;;4941745;28;20204;-79
2022/03/30 10:30:28;;;;;;;12.73;5.33;;;;;;;;;;4981586;28;20380;-81
2022/03/30 10:32:57;;;;;;;11.83;4.73;;;;;;;;;;4976058;28;20201;-82
2022/03/30 10:35:58;;;;;;;9.87;4.93;;;;;;;;;;4963877;28;20206;-80
2022/03/30 10:38:25;;;;;;;14.73;4.90;;;;;;;;;;4933824;28;20240;-76
2022/03/30 10:41:08;;;;;;;12.53;4.87;;;;;;;;;;4987105;28;20219;-81
2022/03/30 10:43:35;;;;;;;12.07;5.23;;;;;;;;;;4975651;28;20604;-82
2022/03/30 10:46:04;;;;;;;12.10;5.03;;;;;;;;;;4976956;28;20688;-82
2022/03/30 10:48:31;;;;;;;9.87;4.97;;;;;;;;;;4963625;28;20315;-78
2022/03/30 10:51:11;;;;;;;10.27;5.17;;;;;;;;;;4965941;28;20235;-77
2022/03/30 10:53:39;;;;;;;7.87;4.30;;;;;;;;;;4977810;28;20322;-78
2022/03/30 10:56:10;;;;;;;10.63;4.50;;;;;;;;;;4977809;28;20336;-79
2022/03/30 10:58:38;;;;;;;7.60;4.70;;;;;;;;;;4974321;28;20201;-77
2022/03/30 11:01:12;;;;;;;8.67;4.70;;;;;;;;;;4970241;28;20299;-77
2022/03/30 11:03:59;;;;;;;9.43;5.07;;;;;;;;;;4967908;28;20232;-79
2022/03/30 11:06:27;;;;;;;10.13;4.93;;;;;;;;;;4975270;28;20243;-78
2022/03/30 11:08:55;;;;;;;9.00;4.83;;;;;;;;;;4975537;28;20209;-77
2022/03/30 11:11:23;;;;;;;6.80;5.17;;;;;;;;;;4982559;28;20303;-78
2022/03/30 11:14:09;;;;;;;11.27;4.87;;;;;;;;;;4970646;28;20236;-79
2022/03/30 11:16:50;;;;;;;8.63;5.23;;;;;;;;;;4975377;28;20291;-81
2022/03/30 11:19:22;;;;;;;10.63;5.60;;;;;;;;;;4974669;28;20235;-77
2022/03/30 11:21:54;;;;;;;9.03;4.93;;;;;;;;;;4976328;28;22314;-79
2022/03/30 11:24:25;;;;;;;8.00;4.97;;;;;;;;;;4972030;28;20227;-79
2022/03/30 11:26:52;;;;;;;9.90;5.00;;;;;;;;;;4980934;28;20219;-81
2022/03/30 11:29:55;;;;;;;10.13;5.63;;;;;;;;;;4974053;28;20208;-78
2022/03/30 11:32:22;;;;;;;11.63;6.53;;;;;;;;;;4899756;29;20233;-83
2022/03/30 11:34:54;;;;;;;13.23;6.20;;;;;;;;;;4955731;28;20236;-77
2022/03/30 11:37:42;;;;;;;10.53;6.10;;;;;;;;;;4975594;28;20255;-77
2022/03/30 11:40:09;;;;;;;11.37;5.50;;;;;;;;;;4962588;28;20215;-78
2022/03/30 11:42:40;;;;;;;13.00;5.70;;;;;;;;;;4980375;28;20205;-81
2022/03/30 11:45:21;;;;;;;9.10;5.43;;;;;;;;;;4983203;28;20700;-81
2022/03/30 11:47:56;;;;;;;13.90;5.80;;;;;;;;;;4980565;28;20587;-80
2022/03/30 11:50:26;;;;;;;14.23;5.43;;;;;;;;;;4980332;28;20507;-82
2022/03/30 11:52:57;;;;;;;11.73;5.80;;;;;;;;;;4987036;28;20745;-80
2022/03/30 11:55:24;;;;;;;16.60;8.90;;;;;;;;;;4985386;28;20372;-79
2022/03/30 11:57:52;;;;;;;14.17;7.20;;;;;;;;;;4984199;28;20298;-81
2022/03/30 12:00:22;;;;;;;12.90;5.33;;;;;;;;;;4980063;28;20302;-79
2022/03/30 12:02:49;;;;;;;13.67;6.47;;;;;;;;;;4966146;28;20200;-79
2022/03/30 12:05:17;;;;;;;14.10;5.30;;;;;;;;;;4979051;28;20208;-76
2022/03/30 12:07:45;;;;;;;11.20;5.47;;;;;;;;;;4975374;28;20232;-81
2022/03/30 12:10:13;;;;;;;10.83;5.57;;;;;;;;;;4975212;28;20319;-82
2022/03/30 12:12:41;;;;;;;10.67;5.50;;;;;;;;;;4987540;28;20235;-80
2022/03/30 12:15:11;;;;;;;10.20;5.60;;;;;;;;;;4985627;28;20228;-82
2022/03/30 12:17:38;;;;;;;11.00;5.30;;;;;;;;;;4977580;28;20303;-81
2022/03/30 12:20:09;;;;;;;11.53;5.27;;;;;;;;;;4976782;28;20300;-82
2022/03/30 12:22:37;;;;;;;10.57;5.63;;;;;;;;;;4975322;28;20299;-79
2022/03/30 12:25:18;;;;;;;12.17;5.73;;;;;;;;;;4979345;28;20304;-79
2022/03/30 12:27:45;;;;;;;9.10;5.17;;;;;;;;;;4983107;28;20258;-80
2022/03/30 12:30:12;;;;;;;9.10;5.07;;;;;;;;;;4982481;28;22456;-79
2022/03/30 12:32:39;;;;;;;8.60;5.20;;;;;;;;;;4979193;28;20301;-77
2022/03/30 12:35:15;;;;;;;10.67;5.83;;;;;;;;;;4975059;28;20212;-80
2022/03/30 12:37:45;;;;;;;11.27;5.47;;;;;;;;;;4979826;28;20228;-81
2022/03/30 12:40:22;;;;;;;11.03;5.80;;;;;;;;;;4981914;28;20285;-79
2022/03/30 12:42:49;;;;;;;9.10;5.43;;;;;;;;;;4984072;28;20287;-84
2022/03/30 12:45:18;;;;;;;9.13;5.47;;;;;;;;;;4980459;28;20210;-80
2022/03/30 12:47:51;;;;;;;12.20;5.07;;;;;;;;;;4970017;28;23750;-82
2022/03/30 12:50:25;;;;;;;10.87;5.23;;;;;;;;;;4982788;28;20204;-80
2022/03/30 12:52:54;;;;;;;12.37;5.43;;;;;;;;;;4978901;28;20211;-79
2022/03/30 12:55:34;;;;;;;11.10;6.23;;;;;;;;;;4974064;28;20232;-81
2022/03/30 12:58:20;;;;;;;9.77;5.20;;;;;;;;;;4977464;28;20231;-80
2022/03/30 13:00:49;;;;;;;12.50;5.20;;;;;;;;;;4978048;28;20208;-78
2022/03/30 13:03:20;;;;;;;10.37;5.00;;;;;;;;;;4981851;28;20216;-79
2022/03/30 13:05:48;;;;;;;12.57;5.80;;;;;;;;;;4975023;28;20224;-80
2022/03/30 13:08:23;;;;;;;8.77;5.30;;;;;;;;;;4983929;28;20263;-79
2022/03/30 13:10:52;;;;;;;8.93;5.17;;;;;;;;;;4979348;28;20235;-80
2022/03/30 13:13:26;;;;;;;9.73;5.37;;;;;;;;;;4974071;28;20230;-79
2022/03/30 13:16:05;;;;;;;8.97;5.10;;;;;;;;;;4972233;28;20295;-77
2022/03/30 13:18:33;;;;;;;12.87;5.00;;;;;;;;;;4974404;28;20243;-80
2022/03/30 13:21:10;;;;;;;9.40;5.00;;;;;;;;;;4982084;28;20236;-81
2022/03/30 13:23:43;;;;;;;11.17;5.60;;;;;;;;;;4972504;28;20364;-78
2022/03/30 13:26:26;;;;;;;10.60;5.60;;;;;;;;;;4975087;28;20652;-80
2022/03/30 13:28:54;;;;;;;10.40;5.63;;;;;;;;;;4975581;28;20237;-79
2022/03/30 13:31:21;;;;;;;11.73;6.43;;;;;;;;;;4983020;28;20278;-81
2022/03/30 13:33:49;;;;;;;8.43;5.10;;;;;;;;;;4985724;28;20243;-80
2022/03/30 13:36:17;;;;;;;11.00;5.80;;;;;;;;;;4978736;28;20330;-80
2022/03/30 13:38:46;;;;;;;11.80;6.10;;;;;;;;;;4975139;28;20624;-81
2022/03/30 13:41:13;;;;;;;7.57;5.07;;;;;;;;;;4988436;28;20200;-80
2022/03/30 13:43:41;;;;;;;14.23;7.77;;;;;;;;;;4981435;28;20274;-80
2022/03/30 13:46:08;;;;;;;15.93;6.50;;;;;;;;;;4986197;28;20292;-80
2022/03/30 13:48:35;;;;;;;11.97;7.17;;;;;;;;;;4996389;28;20219;-80
2022/03/30 13:51:03;;;;;;;9.23;5.90;;;;;;;;;;4985709;28;20203;-80
2022/03/30 13:53:31;;;;;;;13.57;6.40;;;;;;;;;;4986481;28;20224;-78
2022/03/30 13:55:59;;;;;;;8.93;5.50;;;;;;;;;;4975249;28;20300;-77
2022/03/30 13:58:29;;;;;;;11.80;5.63;;;;;;;;;;4981770;28;20669;-78
2022/03/30 14:00:56;;;;;;;11.80;6.50;;;;;;;;;;4976854;28;20266;-80
2022/03/30 14:03:28;;;;;;;11.10;7.43;;;;;;;;;;4982907;28;20232;-80
2022/03/30 14:05:55;;;;;;;10.00;5.10;;;;;;;;;;4981989;28;20236;-80
2022/03/30 14:08:23;;;;;;;15.67;9.30;;;;;;;;;;4989342;28;20204;-81
2022/03/30 14:10:52;;;;;;;10.83;5.37;;;;;;;;;;4978930;28;20208;-80
2022/03/30 14:13:20;;;;;;;9.80;5.23;;;;;;;;;;4988197;28;20315;-81
2022/03/30 14:15:47;;;;;;;15.60;6.80;;;;;;;;;;4988799;28;20265;-78
2022/03/30 14:18:18;;;;;;;13.07;5.13;;;;;;;;;;4985557;28;20606;-80
2022/03/30 14:20:46;;;;;;;8.83;4.80;;;;;;;;;;4979366;28;20744;-82
2022/03/30 14:23:13;;;;;;;13.03;6.60;;;;;;;;;;4983060;28;20255;-79
2022/03/30 14:25:41;;;;;;;16.47;10.37;;;;;;;;;;4981542;28;20262;-80
2022/03/30 14:28:09;;;;;;;9.90;6.07;;;;;;;;;;4986865;28;20311;-81
2022/03/30 14:30:37;;;;;;;14.33;6.40;;;;;;;;;;4979290;28;20307;-78
2022/03/30 14:33:05;;;;;;;11.33;6.60;;;;;;;;;;4984283;28;20255;-79
2022/03/30 14:35:35;;;;;;;10.30;5.80;;;;;;;;;;4988311;28;20246;-81
2022/03/30 14:38:10;;;;;;;12.50;5.73;;;;;;;;;;4990576;28;20255;-79
2022/03/30 14:40:38;;;;;;;10.47;5.90;;;;;;;;;;4983514;28;20290;-79
2022/03/30 14:43:05;;;;;;;11.67;5.93;;;;;;;;;;4979251;28;20263;-81
2022/03/30 14:45:34;;;;;;;10.33;5.73;;;;;;;;;;4969245;28;20283;-80
2022/03/30 14:48:02;;;;;;;9.17;6.30;;;;;;;;;;4970827;28;20216;-79
2022/03/30 14:50:29;;;;;;;8.47;5.23;;;;;;;;;;4963031;28;20299;-77
2022/03/30 14:52:56;;;;;;;12.03;7.67;;;;;;;;;;4977766;28;20283;-79